Time;durP1;ratioP1;P1;durP2;ratioP2;P2;SDS_P1;SDS_P2;PMS_P1;PMS_P2;Temp;Humidity;BMP_temperature;BMP_pressure;BME280_temperature;BME280_humidity;BME280_pressure;Samples;Min_cycle;Max_cycle;Signal;HPM_P1;HPM_P2
2022/11/17 00:00:18;;;;;;;7.53;1.93;;;9.30;99.90;;;;;;5031887;28;20173;-58
2022/11/17 00:02:44;;;;;;;7.37;2.00;;;9.50;99.90;;;;;;5031397;28;20177;-58
2022/11/17 00:05:10;;;;;;;9.07;2.40;;;9.50;99.90;;;;;;5031650;28;20174;-58
2022/11/17 00:07:35;;;;;;;8.60;2.00;;;9.50;99.90;;;;;;5031957;28;20169;-58
2022/11/17 00:10:01;;;;;;;6.47;1.83;;;9.50;99.90;;;;;;5031422;28;20209;-58
2022/11/17 00:15:11;;;;;;;11.27;2.30;;;9.60;99.90;;;;;;5024668;28;20236;-58
2022/11/17 00:17:36;;;;;;;7.13;2.00;;;9.40;99.90;;;;;;5031466;28;20200;-58
2022/11/17 00:22:47;;;;;;;5.17;2.07;;;9.30;99.90;;;;;;5031967;28;20189;-58
2022/11/17 00:25:12;;;;;;;9.70;2.47;;;9.40;99.90;;;;;;5023256;28;20170;-59
2022/11/17 00:27:38;;;;;;;12.53;2.67;;;9.50;99.90;;;;;;5015096;28;20639;-59
2022/11/17 00:30:05;;;;;;;11.93;2.33;;;9.50;99.90;;;;;;5029451;28;20185;-59
2022/11/17 00:35:15;;;;;;;6.77;1.60;;;9.50;99.90;;;;;;5016491;28;20331;-58
2022/11/17 00:40:25;;;;;;;6.73;1.40;;;9.50;99.90;;;;;;5011622;28;20215;-58
2022/11/17 00:42:51;;;;;;;6.27;1.53;;;9.50;99.90;;;;;;5015077;28;20174;-59
2022/11/17 00:45:16;;;;;;;4.30;1.20;;;9.60;99.90;;;;;;5020911;28;20256;-58
2022/11/17 00:47:42;;;;;;;4.50;1.20;;;9.50;99.90;;;;;;5022092;28;20216;-58
2022/11/17 00:50:08;;;;;;;8.90;1.57;;;9.30;99.90;;;;;;5022318;28;20216;-58
2022/11/17 00:52:34;;;;;;;3.97;0.80;;;9.90;99.90;;;;;;5024936;28;20178;-58
2022/11/17 00:55:00;;;;;;;6.50;1.03;;;;;;;;;;5022342;28;20211;-58
2022/11/17 00:57:26;;;;;;;3.30;1.00;;;9.30;99.90;;;;;;5031339;28;20641;-57
2022/11/17 00:59:51;;;;;;;6.33;1.50;;;9.50;99.90;;;;;;5013953;28;20317;-58
2022/11/17 01:02:17;;;;;;;7.70;1.30;;;9.50;99.90;;;;;;5031568;28;20185;-58
2022/11/17 01:04:42;;;;;;;3.07;0.80;;;9.40;99.90;;;;;;5031194;28;20654;-58
2022/11/17 01:07:08;;;;;;;5.07;0.90;;;9.40;99.90;;;;;;5030951;28;20695;-57
2022/11/17 01:09:34;;;;;;;4.60;0.90;;;9.60;99.90;;;;;;5027842;28;20726;-57
2022/11/17 01:11:59;;;;;;;5.30;0.93;;;9.30;99.90;;;;;;5026479;28;20285;-57
2022/11/17 01:14:27;;;;;;;6.90;0.80;;;9.40;99.90;;;;;;5030676;28;20212;-57
2022/11/17 01:16:54;;;;;;;2.90;0.90;;;9.40;99.90;;;;;;5030715;28;20226;-58
2022/11/17 01:19:20;;;;;;;5.13;0.80;;;9.30;99.90;;;;;;5019935;28;20170;-57
2022/11/17 01:21:46;;;;;;;2.53;0.90;;;9.50;99.90;;;;;;5011346;28;20181;-57
2022/11/17 01:24:14;;;;;;;5.27;0.93;;;9.30;99.90;;;;;;5011483;28;20171;-57
2022/11/17 01:26:41;;;;;;;6.97;0.90;;;9.20;99.90;;;;;;5011094;28;20221;-57
2022/11/17 01:29:09;;;;;;;7.10;0.97;;;9.30;99.90;;;;;;5013577;28;20263;-57
2022/11/17 01:31:38;;;;;;;3.83;0.80;;;9.40;99.90;;;;;;5015408;28;20178;-57
2022/11/17 01:34:05;;;;;;;1.03;0.50;;;9.20;99.90;;;;;;5015240;28;20238;-57
2022/11/17 01:39:24;;;;;;;4.20;0.93;;;9.40;99.90;;;;;;5015482;28;20186;-57
2022/11/17 01:41:51;;;;;;;3.93;0.77;;;9.50;99.90;;;;;;5015105;28;20174;-57
2022/11/17 01:44:54;;;;;;;4.80;1.03;;;9.30;99.90;;;;;;5014864;28;20865;-57
2022/11/17 01:47:38;;;;;;;4.47;0.93;;;9.30;99.90;;;;;;5022035;28;20182;-57
2022/11/17 01:50:22;;;;;;;3.37;0.73;;;9.30;99.90;;;;;;5034668;28;20193;-57
2022/11/17 01:52:51;;;;;;;2.60;0.70;;;9.10;99.90;;;;;;5034288;28;20256;-57
2022/11/17 01:55:19;;;;;;;2.90;0.60;;;9.10;99.90;;;;;;5029170;28;20256;-57
2022/11/17 01:57:49;;;;;;;5.10;0.67;;;9.50;99.90;;;;;;5026982;28;20201;-57
2022/11/17 02:00:16;;;;;;;3.70;0.73;;;9.40;99.90;;;;;;5014950;28;20174;-57
2022/11/17 02:02:44;;;;;;;1.50;0.60;;;9.40;99.90;;;;;;5019303;28;20177;-57
2022/11/17 02:05:27;;;;;;;1.93;0.57;;;9.40;99.90;;;;;;5017121;28;20198;-57
2022/11/17 02:07:54;;;;;;;1.63;0.47;;;9.40;99.90;;;;;;5034433;28;20183;-58
2022/11/17 02:10:20;;;;;;;4.87;0.60;;;;;;;;;;5014578;28;20179;-58
2022/11/17 02:12:47;;;;;;;2.27;0.50;;;9.30;99.90;;;;;;5014434;28;20241;-58
2022/11/17 02:15:13;;;;;;;0.50;0.30;;;9.40;99.90;;;;;;5014006;28;20276;-58
2022/11/17 02:17:41;;;;;;;3.70;0.60;;;9.20;99.90;;;;;;5013879;28;20179;-58
2022/11/17 02:20:40;;;;;;;2.03;0.40;;;9.20;99.90;;;;;;5014155;28;20187;-57
2022/11/17 02:23:18;;;;;;;2.33;0.50;;;9.40;99.90;;;;;;4996590;28;20531;-57
2022/11/17 02:26:16;;;;;;;2.53;0.40;;;9.40;99.90;;;;;;5014311;28;20182;-57
2022/11/17 02:28:50;;;;;;;1.37;0.40;;;9.30;99.90;;;;;;5014052;28;20175;-57
2022/11/17 02:32:00;;;;;;;3.10;0.40;;;9.20;99.90;;;;;;5014241;28;20178;-57
2022/11/17 02:34:47;;;;;;;5.10;0.60;;;9.40;99.90;;;;;;5013995;28;20289;-57
2022/11/17 02:37:36;;;;;;;2.20;0.57;;;9.30;99.90;;;;;;5014189;28;20653;-57
2022/11/17 02:40:02;;;;;;;2.00;0.50;;;9.20;99.90;;;;;;5013101;28;20194;-58
2022/11/17 02:45:38;;;;;;;3.07;0.53;;;9.30;99.90;;;;;;5014228;28;20173;-59
2022/11/17 02:48:17;;;;;;;3.70;0.60;;;9.20;99.90;;;;;;5013684;28;20209;-59
2022/11/17 02:50:45;;;;;;;4.70;0.60;;;9.20;99.90;;;;;;5013916;28;20205;-58
2022/11/17 02:53:12;;;;;;;4.80;0.70;;;9.20;99.90;;;;;;5013732;28;20162;-58
2022/11/17 02:55:37;;;;;;;2.03;0.30;;;9.20;99.90;;;;;;5013730;28;20716;-59
2022/11/17 02:58:03;;;;;;;2.83;0.50;;;9.20;99.90;;;;;;5024904;28;20186;-59
2022/11/17 03:00:30;;;;;;;1.40;0.30;;;9.10;99.90;;;;;;5025829;28;20221;-58
2022/11/17 03:03:18;;;;;;;4.03;0.37;;;9.20;99.90;;;;;;5033117;28;20177;-59
2022/11/17 03:06:18;;;;;;;2.77;0.53;;;9.20;99.90;;;;;;5028581;28;20177;-59
2022/11/17 03:08:55;;;;;;;3.37;0.63;;;9.20;99.90;;;;;;5017104;28;20273;-59
2022/11/17 03:11:28;;;;;;;3.63;0.50;;;9.10;99.90;;;;;;5032475;28;20173;-58
2022/11/17 03:14:14;;;;;;;4.17;0.70;;;9.10;99.90;;;;;;5031414;28;20190;-58
2022/11/17 03:16:57;;;;;;;3.83;0.63;;;9.20;99.90;;;;;;5012771;28;20225;-58
2022/11/17 03:19:37;;;;;;;1.03;0.50;;;9.20;99.90;;;;;;5012931;28;20169;-58
2022/11/17 03:22:05;;;;;;;2.00;0.60;;;9.20;99.90;;;;;;5012671;28;20245;-58
2022/11/17 03:24:51;;;;;;;7.67;0.57;;;9.20;99.90;;;;;;5014538;28;20199;-58
2022/11/17 03:27:39;;;;;;;2.70;0.60;;;9.20;99.90;;;;;;5024167;28;20243;-58
2022/11/17 03:30:07;;;;;;;3.50;0.47;;;9.20;99.90;;;;;;5012632;28;20174;-58
2022/11/17 03:32:37;;;;;;;4.27;0.80;;;9.30;99.90;;;;;;5030898;28;20170;-58
2022/11/17 03:35:10;;;;;;;3.10;0.60;;;9.30;99.90;;;;;;5015022;28;20271;-58
2022/11/17 03:37:40;;;;;;;2.33;0.70;;;9.30;99.90;;;;;;5032643;28;20166;-58
2022/11/17 03:40:11;;;;;;;5.97;0.97;;;9.40;99.90;;;;;;5032360;28;20178;-58
2022/11/17 03:42:41;;;;;;;0.73;0.50;;;9.40;99.90;;;;;;5032622;28;20181;-57
2022/11/17 03:45:41;;;;;;;1.57;0.47;;;9.30;99.90;;;;;;5032306;28;20177;-57
2022/11/17 03:48:24;;;;;;;1.80;0.50;;;9.40;99.90;;;;;;4989709;28;20178;-58
2022/11/17 03:51:22;;;;;;;1.90;0.47;;;9.50;99.90;;;;;;5031988;28;20209;-57
2022/11/17 03:53:48;;;;;;;3.93;0.63;;;9.50;99.90;;;;;;5032317;28;20213;-58
2022/11/17 03:56:44;;;;;;;10.30;0.60;;;9.70;99.90;;;;;;5024700;28;20202;-58
2022/11/17 03:59:26;;;;;;;3.33;0.93;;;9.50;99.90;;;;;;5032216;28;20166;-58
2022/11/17 04:01:52;;;;;;;5.33;0.80;;;9.60;99.90;;;;;;5031920;28;20181;-56
2022/11/17 04:04:20;;;;;;;2.87;0.90;;;9.70;99.90;;;;;;5031967;28;20184;-56
2022/11/17 04:06:48;;;;;;;1.93;0.80;;;9.80;99.90;;;;;;5031957;28;20196;-56
2022/11/17 04:09:14;;;;;;;3.63;0.93;;;9.70;99.90;;;;;;5032122;28;20193;-56
2022/11/17 04:17:08;;;;;;;5.67;1.23;;;9.70;99.90;;;;;;5023711;28;20296;-56
2022/11/17 04:19:33;;;;;;;6.13;1.00;;;9.70;99.90;;;;;;5012104;28;20288;-56
2022/11/17 04:21:59;;;;;;;6.70;1.17;;;9.70;99.90;;;;;;5030848;28;20268;-56
2022/11/17 04:24:25;;;;;;;2.63;0.83;;;9.80;99.90;;;;;;5031575;28;20597;-56
2022/11/17 04:29:34;;;;;;;6.50;1.53;;;9.70;99.90;;;;;;5031509;28;20834;-57
2022/11/17 04:32:00;;;;;;;3.90;1.40;;;9.70;99.90;;;;;;5031332;28;20170;-57
2022/11/17 04:34:26;;;;;;;6.33;1.23;;;9.70;99.90;;;;;;5031380;28;20676;-57
2022/11/17 04:36:51;;;;;;;4.97;1.40;;;9.80;99.90;;;;;;5030463;28;20181;-57
2022/11/17 04:39:17;;;;;;;6.90;1.63;;;9.70;99.90;;;;;;5020093;28;20181;-57
2022/11/17 04:42:02;;;;;;;3.67;1.27;;;9.80;99.90;;;;;;5019288;28;20252;-57
2022/11/17 04:44:30;;;;;;;7.77;1.40;;;9.80;99.90;;;;;;5011525;28;20212;-57
2022/11/17 04:46:56;;;;;;;6.97;1.43;;;9.70;99.90;;;;;;5011587;28;20187;-57
2022/11/17 04:49:24;;;;;;;5.30;1.50;;;9.80;99.90;;;;;;5021449;28;20197;-57
2022/11/17 04:51:51;;;;;;;6.27;1.67;;;9.80;99.90;;;;;;5004040;28;20199;-56
2022/11/17 04:54:19;;;;;;;5.57;1.67;;;9.70;99.90;;;;;;5011776;28;20225;-56
2022/11/17 04:56:45;;;;;;;8.73;1.67;;;10.10;99.90;;;;;;5017996;28;20272;-56
2022/11/17 04:59:11;;;;;;;5.90;1.87;;;9.70;99.90;;;;;;5024227;28;20716;-56
2022/11/17 05:01:37;;;;;;;8.40;2.00;;;9.70;99.90;;;;;;5021922;28;20174;-56
2022/11/17 05:04:06;;;;;;;8.47;1.93;;;9.60;99.90;;;;;;5029856;28;20188;-56
2022/11/17 05:06:38;;;;;;;4.87;1.70;;;9.60;99.90;;;;;;5014091;28;20205;-56
2022/11/17 05:09:15;;;;;;;7.63;2.27;;;9.60;99.90;;;;;;5011504;28;20178;-56
2022/11/17 05:14:26;;;;;;;7.93;2.73;;;9.40;99.90;;;;;;5011313;28;20224;-56
2022/11/17 05:17:04;;;;;;;9.10;2.40;;;9.50;99.90;;;;;;5021653;28;20225;-56
2022/11/17 05:19:48;;;;;;;5.97;2.50;;;9.50;99.90;;;;;;5018153;28;20174;-56
2022/11/17 05:25:05;;;;;;;8.10;2.40;;;9.50;99.90;;;;;;5022387;28;20192;-56
2022/11/17 05:27:32;;;;;;;6.70;2.27;;;9.50;99.90;;;;;;5030931;28;20633;-56
2022/11/17 05:29:59;;;;;;;6.60;2.23;;;9.50;99.90;;;;;;5031097;28;20178;-56
2022/11/17 05:32:24;;;;;;;7.03;2.30;;;9.50;99.90;;;;;;5031055;28;20184;-56
2022/11/17 05:34:50;;;;;;;6.10;2.10;;;9.50;99.90;;;;;;5030968;28;20633;-56
2022/11/17 05:37:16;;;;;;;8.57;2.37;;;9.50;99.90;;;;;;5029703;28;20680;-56
2022/11/17 05:39:41;;;;;;;6.70;2.30;;;9.90;99.90;;;;;;5030589;28;20165;-56
2022/11/17 05:42:07;;;;;;;5.50;2.33;;;9.50;99.90;;;;;;5013387;28;20202;-56
2022/11/17 05:44:33;;;;;;;5.50;2.43;;;9.50;99.90;;;;;;5024947;28;20188;-56
2022/11/17 05:46:58;;;;;;;4.27;2.47;;;8.90;99.90;;;;;;5023034;28;20272;-56
2022/11/17 05:49:24;;;;;;;5.00;2.47;;;9.50;99.90;;;;;;5030872;28;20265;-56
2022/11/17 05:51:50;;;;;;;8.13;2.30;;;9.50;99.90;;;;;;5030743;28;20655;-56
2022/11/17 05:54:15;;;;;;;10.13;2.80;;;9.60;99.90;;;;;;5030647;28;20574;-56
2022/11/17 05:56:46;;;;;;;4.43;2.10;;;9.40;99.90;;;;;;5030707;28;20198;-57
2022/11/17 05:59:24;;;;;;;7.50;2.50;;;9.60;99.90;;;;;;5030647;28;20701;-56
2022/11/17 06:01:56;;;;;;;4.63;2.30;;;9.60;99.90;;;;;;5030627;28;20528;-59
2022/11/17 06:04:23;;;;;;;10.00;2.30;;;9.50;99.90;;;;;;5030155;28;20695;-56
2022/11/17 06:06:49;;;;;;;7.87;2.00;;;9.60;99.90;;;;;;5030444;28;20162;-56
2022/11/17 06:09:15;;;;;;;8.00;2.30;;;9.50;99.90;;;;;;5030660;28;20177;-56
2022/11/17 06:11:41;;;;;;;6.47;2.10;;;9.60;99.90;;;;;;5030688;28;20162;-56
2022/11/17 06:14:06;;;;;;;3.83;1.93;;;9.60;99.90;;;;;;5031141;28;20701;-56
2022/11/17 06:16:36;;;;;;;5.43;1.83;;;9.50;99.90;;;;;;5033900;28;20226;-56
2022/11/17 06:19:11;;;;;;;4.70;2.13;;;9.30;99.90;;;;;;5034217;28;20174;-56
2022/11/17 06:21:37;;;;;;;11.60;2.53;;;9.50;99.90;;;;;;5033745;28;20218;-56
2022/11/17 06:24:05;;;;;;;6.67;2.30;;;9.80;99.90;;;;;;5033865;28;20210;-56
2022/11/17 06:26:33;;;;;;;5.07;2.00;;;9.40;99.90;;;;;;5033387;28;20174;-56
2022/11/17 06:28:58;;;;;;;6.77;1.90;;;9.70;99.90;;;;;;5033817;28;20170;-56
2022/11/17 06:31:26;;;;;;;6.80;2.13;;;9.40;99.90;;;;;;5033076;28;20197;-56
2022/11/17 06:33:52;;;;;;;4.40;1.63;;;9.50;99.90;;;;;;5014152;28;20174;-56
2022/11/17 06:36:18;;;;;;;5.83;2.00;;;9.40;99.90;;;;;;5014053;28;20248;-56
2022/11/17 06:38:44;;;;;;;5.47;1.67;;;9.50;99.90;;;;;;5014034;28;20185;-56
2022/11/17 06:41:10;;;;;;;7.43;2.03;;;9.70;99.90;;;;;;5024631;28;20296;-56
2022/11/17 06:43:35;;;;;;;5.90;2.30;;;9.30;99.90;;;;;;5017922;28;20170;-56
2022/11/17 06:46:03;;;;;;;5.97;2.60;;;9.40;99.90;;;;;;5024037;28;20186;-56
2022/11/17 06:48:29;;;;;;;8.83;3.00;;;9.30;99.90;;;;;;5023621;28;20173;-57
2022/11/17 06:50:55;;;;;;;13.03;2.80;;;9.40;99.90;;;;;;5014095;28;20634;-56
2022/11/17 06:53:22;;;;;;;12.17;3.13;;;9.40;99.90;;;;;;5013770;28;20174;-58
2022/11/17 06:56:10;;;;;;;8.80;2.90;;;9.30;99.90;;;;;;5013808;28;20279;-57
2022/11/17 06:58:36;;;;;;;8.87;3.07;;;9.30;99.90;;;;;;5013391;28;20229;-57
2022/11/17 07:01:11;;;;;;;12.97;2.70;;;9.20;99.90;;;;;;5013214;28;20202;-57
2022/11/17 07:03:39;;;;;;;9.40;2.43;;;9.30;99.90;;;;;;5013336;28;20178;-58
2022/11/17 07:06:06;;;;;;;11.43;2.40;;;9.20;99.90;;;;;;5013257;28;20182;-57
2022/11/17 07:08:33;;;;;;;9.60;2.47;;;9.20;99.90;;;;;;5013641;28;20186;-57
2022/11/17 07:11:07;;;;;;;11.33;2.40;;;9.40;99.90;;;;;;5013458;28;20629;-57
2022/11/17 07:13:34;;;;;;;6.73;2.70;;;9.20;99.90;;;;;;5013360;28;20258;-57
2022/11/17 07:16:20;;;;;;;5.30;1.97;;;9.30;99.90;;;;;;5012708;28;20233;-57
2022/11/17 07:18:46;;;;;;;8.97;2.50;;;9.20;99.90;;;;;;5013291;28;20159;-57
2022/11/17 07:21:13;;;;;;;4.57;2.20;;;9.20;99.90;;;;;;5012964;28;20170;-57
2022/11/17 07:23:41;;;;;;;8.63;2.10;;;9.00;99.90;;;;;;5012778;28;20258;-57
2022/11/17 07:26:07;;;;;;;9.47;2.20;;;9.10;99.90;;;;;;5012138;28;20205;-58
2022/11/17 07:28:33;;;;;;;4.37;2.10;;;9.20;99.90;;;;;;5013061;28;20206;-57
2022/11/17 07:31:05;;;;;;;9.20;2.00;;;9.20;99.90;;;;;;5012891;28;20167;-57
2022/11/17 07:33:31;;;;;;;9.30;2.37;;;9.10;99.90;;;;;;5027505;28;20163;-57
2022/11/17 07:36:05;;;;;;;12.87;2.67;;;9.10;99.90;;;;;;5020338;28;20286;-57
2022/11/17 07:38:33;;;;;;;11.37;2.90;;;9.10;99.90;;;;;;5012897;28;20265;-57
2022/11/17 07:40:59;;;;;;;5.40;2.00;;;8.90;99.90;;;;;;5011445;28;20198;-58
2022/11/17 07:43:26;;;;;;;7.10;2.67;;;9.00;99.90;;;;;;5032237;28;20272;-58
2022/11/17 07:45:52;;;;;;;13.80;2.90;;;9.00;99.90;;;;;;5023525;28;20167;-58
2022/11/17 07:48:18;;;;;;;7.77;2.27;;;;;;;;;;5026975;28;20197;-58
2022/11/17 07:50:43;;;;;;;7.57;2.57;;;9.10;99.90;;;;;;5032425;28;20201;-58
2022/11/17 07:53:09;;;;;;;9.47;2.83;;;9.20;99.90;;;;;;5032306;28;20197;-58
2022/11/17 07:55:35;;;;;;;9.67;2.40;;;9.20;99.90;;;;;;5030425;28;20617;-58
2022/11/17 07:58:01;;;;;;;13.83;2.97;;;9.20;99.90;;;;;;5032096;28;20273;-58
2022/11/17 08:00:29;;;;;;;8.43;2.70;;;9.10;99.90;;;;;;5032222;28;20177;-58
2022/11/17 08:02:59;;;;;;;13.37;3.60;;;9.20;99.90;;;;;;5031588;28;20182;-58
2022/11/17 08:05:29;;;;;;;10.03;2.73;;;9.30;99.90;;;;;;5031439;28;20185;-58
2022/11/17 08:07:56;;;;;;;13.23;2.87;;;9.40;99.90;;;;;;5031767;28;20651;-58
2022/11/17 08:10:22;;;;;;;10.83;3.10;;;9.40;99.90;;;;;;5031805;28;20253;-58
2022/11/17 08:12:52;;;;;;;10.00;3.00;;;9.50;99.90;;;;;;5020978;28;20879;-58
2022/11/17 08:15:18;;;;;;;17.43;3.00;;;9.70;99.90;;;;;;5011665;28;20215;-59
2022/11/17 08:17:44;;;;;;;10.20;2.77;;;9.60;99.90;;;;;;5012130;28;20236;-58
2022/11/17 08:20:11;;;;;;;10.53;3.10;;;9.60;99.90;;;;;;5011990;28;20649;-57
2022/11/17 08:22:37;;;;;;;10.83;3.13;;;9.80;99.90;;;;;;5011930;28;20170;-58
2022/11/17 08:25:03;;;;;;;6.93;2.40;;;9.80;99.90;;;;;;5012021;28;20178;-56
2022/11/17 08:27:28;;;;;;;6.77;2.50;;;9.90;99.90;;;;;;5011780;28;20204;-56
2022/11/17 08:29:54;;;;;;;6.17;2.50;;;10.00;99.90;;;;;;5011358;28;20229;-56
2022/11/17 08:32:21;;;;;;;8.03;2.90;;;10.00;99.90;;;;;;5026642;28;20535;-56
2022/11/17 08:34:46;;;;;;;7.87;2.90;;;10.10;99.90;;;;;;5025311;28;20245;-56
2022/11/17 08:37:12;;;;;;;11.90;3.33;;;10.20;99.90;;;;;;5030046;28;20206;-56
2022/11/17 08:39:38;;;;;;;5.53;2.40;;;10.90;99.90;;;;;;5018429;28;20625;-56
2022/11/17 08:42:03;;;;;;;17.00;2.83;;;11.40;99.90;;;;;;5029391;28;20221;-56
2022/11/17 08:44:30;;;;;;;11.13;2.57;;;11.20;99.90;;;;;;5027841;28;20699;-56
2022/11/17 08:46:55;;;;;;;6.87;2.50;;;11.20;99.90;;;;;;5027951;28;20209;-56
2022/11/17 08:49:21;;;;;;;8.70;2.23;;;11.00;99.90;;;;;;5021570;28;20202;-56
2022/11/17 08:51:47;;;;;;;9.17;2.80;;;10.90;99.90;;;;;;5030544;28;20264;-56
2022/11/17 08:54:12;;;;;;;7.07;2.73;;;10.80;99.90;;;;;;5030889;28;20267;-56
2022/11/17 08:56:38;;;;;;;7.73;2.90;;;10.90;99.90;;;;;;5030837;28;20178;-56
2022/11/17 08:59:04;;;;;;;8.33;2.73;;;11.00;99.90;;;;;;5030757;28;20593;-56
2022/11/17 09:01:30;;;;;;;12.43;3.07;;;10.80;99.90;;;;;;5030626;28;20181;-56
2022/11/17 09:03:55;;;;;;;8.77;2.50;;;11.00;99.90;;;;;;5030548;28;20174;-56
2022/11/17 09:06:21;;;;;;;13.57;2.70;;;11.00;99.90;;;;;;5030347;28;20181;-56
2022/11/17 09:08:47;;;;;;;11.67;2.73;;;10.80;99.90;;;;;;5030745;28;20204;-56
2022/11/17 09:11:14;;;;;;;10.53;2.73;;;11.00;99.90;;;;;;5030789;28;20220;-56
2022/11/17 09:13:41;;;;;;;6.03;2.17;;;10.90;99.90;;;;;;5030662;28;20189;-56
2022/11/17 09:16:09;;;;;;;8.10;2.23;;;11.10;99.90;;;;;;5030712;28;20225;-56
2022/11/17 09:18:36;;;;;;;6.97;1.90;;;11.20;99.90;;;;;;5030419;28;20196;-59
2022/11/17 09:21:14;;;;;;;4.80;2.03;;;11.40;99.90;;;;;;5030826;28;20177;-56
2022/11/17 09:23:40;;;;;;;3.93;1.60;;;11.60;99.90;;;;;;5030210;28;20178;-56
2022/11/17 09:26:08;;;;;;;7.27;1.80;;;12.10;99.90;;;;;;5030788;28;20166;-56
2022/11/17 09:28:34;;;;;;;6.27;1.73;;;12.10;99.90;;;;;;5030559;28;20201;-56
2022/11/17 09:31:06;;;;;;;8.30;1.77;;;12.10;99.90;;;;;;5023465;28;20257;-56
2022/11/17 09:33:32;;;;;;;10.20;1.37;;;12.30;99.90;;;;;;5030761;28;20193;-56
2022/11/17 09:35:58;;;;;;;5.00;1.20;;;12.20;99.90;;;;;;5030722;28;20206;-56
2022/11/17 09:38:24;;;;;;;7.73;1.30;;;12.30;99.90;;;;;;5030391;28;20637;-56
2022/11/17 09:40:51;;;;;;;6.87;1.43;;;12.20;99.90;;;;;;5012580;28;20170;-56
2022/11/17 09:43:27;;;;;;;3.63;0.80;;;12.50;99.90;;;;;;5030483;28;20178;-56
2022/11/17 09:46:04;;;;;;;4.00;1.00;;;12.50;99.90;;;;;;5030852;28;20272;-57
2022/11/17 09:48:39;;;;;;;8.33;1.20;;;12.60;99.90;;;;;;5030477;28;20249;-56
2022/11/17 09:51:11;;;;;;;3.90;0.87;;;12.50;99.90;;;;;;5034344;28;20628;-55
2022/11/17 09:53:46;;;;;;;4.50;0.80;;;12.60;99.90;;;;;;5034592;28;20166;-55
2022/11/17 09:56:13;;;;;;;7.90;1.10;;;12.50;99.90;;;;;;5034430;28;20247;-55
2022/11/17 09:58:46;;;;;;;6.23;1.10;;;12.70;99.90;;;;;;5034180;28;20173;-55
2022/11/17 10:01:15;;;;;;;4.53;0.90;;;12.90;99.90;;;;;;5034225;28;20166;-55
2022/11/17 10:03:46;;;;;;;2.40;1.03;;;13.10;99.90;;;;;;5034301;28;20166;-55
2022/11/17 10:06:14;;;;;;;2.97;0.70;;;13.20;99.90;;;;;;5034313;28;20196;-54
2022/11/17 10:08:48;;;;;;;9.03;1.60;;;13.30;99.90;;;;;;5034238;28;20166;-56
2022/11/17 10:11:31;;;;;;;10.30;1.10;;;13.40;99.90;;;;;;5034273;28;20632;-54
2022/11/17 10:14:15;;;;;;;2.57;0.97;;;12.80;99.90;;;;;;5033935;28;20170;-53
2022/11/17 10:16:53;;;;;;;5.97;0.90;;;12.70;99.90;;;;;;5028601;28;20261;-55
2022/11/17 10:19:18;;;;;;;7.30;1.10;;;12.60;99.90;;;;;;5034249;28;20197;-54
2022/11/17 10:21:47;;;;;;;5.70;1.33;;;12.80;99.90;;;;;;5033457;28;20294;-54
2022/11/17 10:24:31;;;;;;;4.60;1.00;;;12.60;99.90;;;;;;5033542;28;20170;-55
2022/11/17 10:26:57;;;;;;;10.97;1.53;;;12.10;99.90;;;;;;5033140;28;20172;-54
2022/11/17 10:29:23;;;;;;;5.30;1.07;;;12.40;99.90;;;;;;5032738;28;20178;-55
2022/11/17 10:31:48;;;;;;;2.83;0.80;;;12.50;99.90;;;;;;5032577;28;20212;-55
2022/11/17 10:34:40;;;;;;;2.60;0.87;;;12.40;99.90;;;;;;5032303;28;20624;-55
2022/11/17 10:37:11;;;;;;;4.57;1.00;;;12.60;99.90;;;;;;5028235;28;20243;-55
2022/11/17 10:39:40;;;;;;;4.70;1.10;;;12.70;99.90;;;;;;5032000;28;20790;-55
2022/11/17 10:42:29;;;;;;;5.50;1.20;;;12.80;99.90;;;;;;5031702;28;20178;-55
2022/11/17 10:44:58;;;;;;;5.87;1.33;;;13.60;99.90;;;;;;5032129;28;20166;-55
2022/11/17 10:47:39;;;;;;;4.77;1.30;;;13.30;99.90;;;;;;5031955;28;20170;-55
2022/11/17 10:50:28;;;;;;;5.23;1.43;;;13.10;99.90;;;;;;5031904;28;20174;-55
2022/11/17 10:53:24;;;;;;;5.63;1.33;;;12.70;99.90;;;;;;5031719;28;20162;-55
2022/11/17 10:56:00;;;;;;;5.07;1.60;;;14.80;99.90;;;;;;5032802;28;20210;-55
2022/11/17 10:58:28;;;;;;;4.70;0.80;;;16.40;99.90;;;;;;5033502;28;20248;-55
2022/11/17 11:01:00;;;;;;;3.93;1.17;;;17.10;99.90;;;;;;5033206;28;20588;-55
2022/11/17 11:03:31;;;;;;;4.57;1.00;;;17.00;99.90;;;;;;5033371;28;20174;-55
2022/11/17 11:06:23;;;;;;;3.05;1.08;;;18.50;99.90;;;;;;5033530;28;20174;-54
2022/11/17 11:08:54;;;;;;;8.15;1.17;;;19.10;99.90;;;;;;5033793;28;20192;-55
2022/11/17 11:11:41;;;;;;;7.07;1.20;;;18.90;99.90;;;;;;5033244;28;20167;-55
2022/11/17 11:14:15;;;;;;;3.65;1.13;;;17.90;99.90;;;;;;5033204;28;20177;-53
2022/11/17 11:16:44;;;;;;;5.32;1.10;;;16.80;99.90;;;;;;5032973;28;20217;-54
2022/11/17 11:19:13;;;;;;;5.07;1.40;;;19.30;99.90;;;;;;5015622;28;20215;-54
2022/11/17 11:22:01;;;;;;;3.00;1.08;;;19.40;99.90;;;;;;5033095;28;20202;-54
2022/11/17 11:24:42;;;;;;;5.72;1.20;;;22.10;99.90;;;;;;5033009;28;20271;-54
2022/11/17 11:27:25;;;;;;;8.25;1.10;;;22.70;99.90;;;;;;5033021;28;20169;-55
2022/11/17 11:30:04;;;;;;;4.47;1.10;;;22.30;99.90;;;;;;5032766;28;20646;-55
2022/11/17 11:32:53;;;;;;;4.82;1.60;;;21.40;99.90;;;;;;5033042;28;20189;-54
2022/11/17 11:35:43;;;;;;;3.85;1.00;;;20.80;99.90;;;;;;5032749;28;20206;-55
2022/11/17 11:38:24;;;;;;;6.57;1.13;;;20.50;99.90;;;;;;5032632;28;20261;-54
2022/11/17 11:41:06;;;;;;;5.18;1.17;;;22.20;99.90;;;;;;5032679;28;20176;-54
2022/11/17 11:43:47;;;;;;;4.15;1.02;;;19.80;99.90;;;;;;5032581;28;20181;-55
2022/11/17 11:46:17;;;;;;;4.30;1.08;;;19.60;99.90;;;;;;5032247;28;20612;-55
2022/11/17 11:48:45;;;;;;;5.13;1.02;;;17.30;99.90;;;;;;5032458;28;20180;-54
2022/11/17 11:51:18;;;;;;;3.95;1.00;;;13.70;99.90;;;;;;5032302;28;20273;-54
2022/11/17 11:54:16;;;;;;;5.00;1.33;;;18.10;99.90;;;;;;5032165;28;20170;-54
2022/11/17 11:56:44;;;;;;;8.23;1.40;;;17.70;99.90;;;;;;5031907;28;20189;-54
2022/11/17 11:59:40;;;;;;;8.18;1.67;;;21.00;99.90;;;;;;5032244;28;20178;-55
2022/11/17 12:02:06;;;;;;;5.22;1.30;;;22.50;99.90;;;;;;5032074;28;20205;-55
2022/11/17 12:04:52;;;;;;;6.97;1.63;;;22.60;99.90;;;;;;5032201;28;20201;-54
2022/11/17 12:07:39;;;;;;;6.70;1.60;;;21.90;99.90;;;;;;5032088;28;20184;-54
2022/11/17 12:10:23;;;;;;;5.38;1.42;;;21.70;99.90;;;;;;5032056;28;20261;-56
2022/11/17 12:12:49;;;;;;;7.75;1.40;;;20.00;99.90;;;;;;5031637;28;20174;-54
2022/11/17 12:15:18;;;;;;;5.00;1.20;;;18.40;99.90;;;;;;5032135;28;20209;-55
2022/11/17 12:18:02;;;;;;;6.03;1.30;;;17.20;99.90;;;;;;5031926;28;20228;-54
2022/11/17 12:20:44;;;;;;;3.20;1.20;;;18.90;99.90;;;;;;5031904;28;20269;-54
2022/11/17 12:23:12;;;;;;;4.90;1.00;;;20.50;99.90;;;;;;5031874;28;20180;-54
2022/11/17 12:25:45;;;;;;;3.53;1.10;;;18.80;99.90;;;;;;5031790;28;20232;-53
2022/11/17 12:28:32;;;;;;;3.53;1.08;;;18.20;99.90;;;;;;5030264;28;20249;-53
2022/11/17 12:31:02;;;;;;;3.53;1.10;;;19.60;99.90;;;;;;5021967;28;20174;-54
2022/11/17 12:33:52;;;;;;;7.70;1.80;;;18.50;99.90;;;;;;5031745;28;20216;-54
2022/11/17 12:36:30;;;;;;;3.50;1.20;;;18.80;99.90;;;;;;5011767;28;20697;-54
2022/11/17 12:39:00;;;;;;;3.13;1.30;;;19.30;99.90;;;;;;5005421;28;20519;-54
2022/11/17 12:41:48;;;;;;;4.80;1.30;;;18.50;99.90;;;;;;5011458;28;20175;-54
2022/11/17 12:44:44;;;;;;;5.05;1.13;;;20.80;99.90;;;;;;5011566;28;20167;-54
2022/11/17 12:47:20;;;;;;;4.25;1.00;;;22.30;99.90;;;;;;5011868;28;20166;-54
2022/11/17 12:50:10;;;;;;;2.80;1.10;;;19.50;99.90;;;;;;5011317;28;20184;-54
2022/11/17 12:52:42;;;;;;;3.47;0.80;;;18.80;99.90;;;;;;5011647;28;20175;-56
2022/11/17 12:55:11;;;;;;;4.18;1.25;;;18.90;99.90;;;;;;5011452;28;20550;-56
2022/11/17 12:57:37;;;;;;;3.60;1.05;;;18.80;99.90;;;;;;5011573;28;20617;-55
2022/11/17 13:00:20;;;;;;;3.60;1.20;;;17.60;99.90;;;;;;5011470;28;20190;-55
2022/11/17 13:02:59;;;;;;;3.15;1.05;;;17.00;99.90;;;;;;5011042;28;20163;-56
2022/11/17 13:05:27;;;;;;;4.38;1.15;;;16.30;99.90;;;;;;5011354;28;20186;-55
2022/11/17 13:08:20;;;;;;;4.05;1.10;;;15.80;99.90;;;;;;5011471;28;20175;-55
2022/11/17 13:10:46;;;;;;;3.83;1.00;;;15.30;99.90;;;;;;5010190;28;20177;-55
2022/11/17 13:13:19;;;;;;;3.10;0.80;;;17.50;99.90;;;;;;5010107;28;20175;-55
2022/11/17 13:15:57;;;;;;;3.47;1.02;;;15.70;99.90;;;;;;4993031;28;20225;-55
2022/11/17 13:18:40;;;;;;;2.83;1.20;;;16.70;99.90;;;;;;5007380;28;20673;-56
2022/11/17 13:21:29;;;;;;;4.68;1.00;;;17.40;99.90;;;;;;5011313;28;20180;-55
2022/11/17 13:23:57;;;;;;;6.07;1.00;;;16.50;99.90;;;;;;5010464;28;20162;-56
2022/11/17 13:26:34;;;;;;;6.05;1.00;;;17.60;99.90;;;;;;5010797;28;20185;-55
2022/11/17 13:29:17;;;;;;;3.65;1.10;;;17.10;99.90;;;;;;5010885;28;20178;-55
2022/11/17 13:31:42;;;;;;;4.95;0.90;;;16.70;99.90;;;;;;5010796;28;20162;-57
2022/11/17 13:34:11;;;;;;;4.95;1.15;;;17.90;99.90;;;;;;5011044;28;20192;-56
2022/11/17 13:36:57;;;;;;;9.20;1.17;;;17.60;99.90;;;;;;5010410;28;20185;-56
2022/11/17 13:39:25;;;;;;;5.63;1.20;;;17.60;99.90;;;;;;5010873;28;20225;-55
2022/11/17 13:41:51;;;;;;;5.32;1.17;;;17.70;99.90;;;;;;5010755;28;20184;-55
2022/11/17 13:44:21;;;;;;;5.63;1.10;;;18.10;99.90;;;;;;5023716;28;20178;-55
2022/11/17 13:46:47;;;;;;;5.07;1.02;;;16.90;99.90;;;;;;5030108;28;20672;-55